createdAt,value
2023-01-26T00:01:53.518Z,70.77
2023-01-26T00:04:21.402Z,70.63
2023-01-26T00:06:49.229Z,77.73
2023-01-26T00:09:17.371Z,63.33
2023-01-26T00:11:45.205Z,66.57
2023-01-26T00:14:13.153Z,73.97
2023-01-26T00:16:41.051Z,71.23
2023-01-26T00:19:10.413Z,71.70
2023-01-26T00:21:38.269Z,75.43
2023-01-26T00:24:06.699Z,70.73
2023-01-26T00:26:34.617Z,72.60
2023-01-26T00:29:02.438Z,73.90
2023-01-26T00:31:30.566Z,73.03
2023-01-26T00:34:00.615Z,72.33
2023-01-26T00:36:31.337Z,75.03
2023-01-26T00:38:59.231Z,70.00
2023-01-26T00:41:44.956Z,73.43
2023-01-26T00:44:12.839Z,67.10
2023-01-26T00:46:41.015Z,71.80
2023-01-26T00:49:09.120Z,67.27
2023-01-26T00:51:38.313Z,82.37
2023-01-26T00:54:06.266Z,66.97
2023-01-26T00:56:34.142Z,63.50
2023-01-26T00:59:01.981Z,76.33
2023-01-26T01:01:29.887Z,72.80
2023-01-26T01:03:57.861Z,71.93
2023-01-26T01:06:25.897Z,63.13
2023-01-26T01:08:55.199Z,70.17
2023-01-26T01:11:23.133Z,68.80
2023-01-26T01:13:52.442Z,70.77
2023-01-26T01:16:20.501Z,75.37
2023-01-26T01:18:48.386Z,60.70
2023-01-26T01:21:18.318Z,73.77
2023-01-26T01:23:46.318Z,74.17
2023-01-26T01:26:16.175Z,70.70
2023-01-26T01:28:45.110Z,75.97
2023-01-26T01:31:15.166Z,69.07
2023-01-26T01:33:44.062Z,77.40
2023-01-26T01:36:14.324Z,71.17
2023-01-26T01:38:43.300Z,78.57
2023-01-26T01:41:11.862Z,76.33
2023-01-26T01:43:41.119Z,72.37
2023-01-26T01:46:17.683Z,76.73
2023-01-26T01:48:51.547Z,70.60
2023-01-26T01:51:28.860Z,69.83
2023-01-26T01:53:59.753Z,76.30
2023-01-26T01:56:30.419Z,72.33
2023-01-26T01:59:02.636Z,78.50
2023-01-26T02:01:31.239Z,84.67
2023-01-26T02:04:02.419Z,85.93
2023-01-26T02:06:34.256Z,81.37
2023-01-26T02:09:03.316Z,84.93
2023-01-26T02:11:35.680Z,78.07
2023-01-26T02:14:07.627Z,84.63
2023-01-26T02:16:35.739Z,84.33
2023-01-26T02:19:06.084Z,74.73
2023-01-26T02:21:34.325Z,83.30
2023-01-26T02:24:13.781Z,81.43
2023-01-26T02:26:43.675Z,81.70
2023-01-26T02:29:12.778Z,78.13
2023-01-26T02:31:44.519Z,80.13
2023-01-26T02:34:12.555Z,81.27
2023-01-26T02:36:40.406Z,83.00
2023-01-26T02:39:23.293Z,87.53
2023-01-26T02:42:11.546Z,85.50
2023-01-26T02:44:42.481Z,80.27
2023-01-26T02:47:15.493Z,88.93
2023-01-26T02:49:50.901Z,88.63
2023-01-26T02:52:22.516Z,83.87
2023-01-26T02:55:15.955Z,79.07
2023-01-26T02:57:46.811Z,77.90
2023-01-26T03:00:18.593Z,86.70
2023-01-26T03:02:47.557Z,76.53
2023-01-26T03:05:15.769Z,67.83
2023-01-26T03:07:43.816Z,71.27
2023-01-26T03:10:13.852Z,69.50
2023-01-26T03:12:41.958Z,73.00
2023-01-26T03:15:30.327Z,74.47
2023-01-26T03:18:36.495Z,61.77
2023-01-26T03:21:24.301Z,68.57
2023-01-26T03:24:10.337Z,68.70
2023-01-26T03:26:57.198Z,71.53
2023-01-26T03:29:26.501Z,70.07
2023-01-26T03:31:59.206Z,70.20
2023-01-26T03:34:27.505Z,72.83
2023-01-26T03:36:55.401Z,76.97
2023-01-26T03:39:40.804Z,81.30
2023-01-26T03:42:26.348Z,75.97
2023-01-26T03:45:11.728Z,73.63
2023-01-26T03:48:01.583Z,72.57
2023-01-26T03:50:48.536Z,72.07
2023-01-26T03:53:35.980Z,73.23
2023-01-26T03:56:18.291Z,72.57
2023-01-26T03:58:48.282Z,83.87
2023-01-26T04:01:19.805Z,78.23
2023-01-26T04:04:09.914Z,71.80
2023-01-26T04:06:58.853Z,76.43
2023-01-26T04:09:26.851Z,79.33
2023-01-26T04:11:54.825Z,71.27
2023-01-26T04:14:49.853Z,71.90
2023-01-26T04:17:39.154Z,75.43
2023-01-26T04:20:27.811Z,73.17
2023-01-26T04:22:55.970Z,74.37
2023-01-26T04:25:24.436Z,65.93
2023-01-26T04:27:53.042Z,70.80
2023-01-26T04:30:21.293Z,70.27
2023-01-26T04:32:52.110Z,71.63
2023-01-26T04:35:21.360Z,79.37
2023-01-26T04:37:49.562Z,70.03
2023-01-26T04:40:18.203Z,77.67
2023-01-26T04:42:47.306Z,72.87
2023-01-26T04:45:15.207Z,74.43
2023-01-26T04:47:46.005Z,68.77
2023-01-26T04:50:16.821Z,64.67
2023-01-26T04:52:47.732Z,67.67
2023-01-26T04:55:16.936Z,67.73
2023-01-26T04:57:45.395Z,70.47
2023-01-26T05:00:14.869Z,77.37
2023-01-26T05:02:43.343Z,68.77
2023-01-26T05:05:11.647Z,76.87
2023-01-26T05:07:40.243Z,71.53
2023-01-26T05:10:13.886Z,73.77
2023-01-26T05:13:04.968Z,57.73
2023-01-26T05:15:45.383Z,63.77
2023-01-26T05:18:26.351Z,69.93
2023-01-26T05:21:04.616Z,66.13
2023-01-26T05:23:40.822Z,63.10
2023-01-26T05:26:40.935Z,63.37
2023-01-26T05:29:13.796Z,64.80
2023-01-26T05:31:41.915Z,63.73
2023-01-26T05:34:10.182Z,61.43
2023-01-26T05:36:38.416Z,59.43
2023-01-26T05:39:06.692Z,58.50
2023-01-26T05:41:34.620Z,60.97
2023-01-26T05:44:24.748Z,55.80
2023-01-26T05:46:58.403Z,58.17
2023-01-26T05:49:26.400Z,58.83
2023-01-26T05:51:55.469Z,54.33
2023-01-26T05:54:24.748Z,51.67
2023-01-26T05:56:53.755Z,62.40
2023-01-26T05:59:23.178Z,54.60
2023-01-26T06:01:51.065Z,62.00
2023-01-26T06:04:19.170Z,55.30
2023-01-26T06:06:54.336Z,67.50
2023-01-26T06:09:27.334Z,60.33
2023-01-26T06:12:35.333Z,59.97
2023-01-26T06:15:17.270Z,54.80
2023-01-26T06:17:47.306Z,61.43
2023-01-26T06:20:16.550Z,60.17
2023-01-26T06:22:52.461Z,59.67
2023-01-26T06:25:20.407Z,66.90
2023-01-26T06:27:48.290Z,56.87
2023-01-26T06:30:26.505Z,62.73
2023-01-26T06:32:58.860Z,53.97
2023-01-26T06:35:28.127Z,56.17
2023-01-26T06:37:58.619Z,55.97
2023-01-26T06:40:26.606Z,56.93
2023-01-26T06:42:54.591Z,56.97
2023-01-26T06:45:22.678Z,54.20
2023-01-26T06:47:53.178Z,51.30
2023-01-26T06:50:24.205Z,55.97
2023-01-26T06:52:55.526Z,49.60
2023-01-26T06:55:39.034Z,47.60
2023-01-26T06:58:30.037Z,50.73
2023-01-26T07:01:08.310Z,54.27
2023-01-26T07:03:37.531Z,41.13
2023-01-26T07:06:07.870Z,43.20
2023-01-26T07:08:35.742Z,47.33
2023-01-26T07:11:03.544Z,46.03
2023-01-26T07:13:31.398Z,52.60
2023-01-26T07:16:02.420Z,50.63
2023-01-26T07:18:30.434Z,43.83
2023-01-26T07:21:02.832Z,48.50
2023-01-26T07:23:31.013Z,40.50
2023-01-26T07:25:59.700Z,42.07
2023-01-26T07:28:30.354Z,43.40
2023-01-26T07:30:59.344Z,39.40
2023-01-26T07:33:27.374Z,39.87
2023-01-26T07:35:55.623Z,43.03
2023-01-26T07:38:25.565Z,43.63
2023-01-26T07:40:53.951Z,34.70
2023-01-26T07:43:22.245Z,42.37
2023-01-26T07:45:53.674Z,36.80
2023-01-26T07:48:23.016Z,42.17
2023-01-26T07:50:51.338Z,38.33
2023-01-26T07:53:22.697Z,37.63
2023-01-26T07:55:52.216Z,33.90
2023-01-26T07:58:20.175Z,35.07
2023-01-26T08:00:48.125Z,36.97
2023-01-26T08:03:16.055Z,32.73
2023-01-26T08:05:44.247Z,36.07
2023-01-26T08:08:12.240Z,35.67
2023-01-26T08:10:40.123Z,35.77
2023-01-26T08:13:09.288Z,38.73
2023-01-26T08:15:37.238Z,31.90
2023-01-26T08:18:05.884Z,38.27
2023-01-26T08:20:34.922Z,37.47
2023-01-26T08:23:02.771Z,37.50
2023-01-26T08:25:32.875Z,32.40
2023-01-26T08:28:00.742Z,36.60
2023-01-26T08:30:29.933Z,35.83
2023-01-26T08:32:57.793Z,36.00
2023-01-26T08:35:25.725Z,33.93
2023-01-26T08:37:54.415Z,33.83
2023-01-26T08:40:22.221Z,34.93
2023-01-26T08:42:50.119Z,35.27
2023-01-26T08:45:18.155Z,36.43
2023-01-26T08:47:50.271Z,38.53
2023-01-26T08:50:18.407Z,34.20
2023-01-26T08:52:46.398Z,36.50
2023-01-26T08:55:14.270Z,36.37
2023-01-26T08:57:42.163Z,36.07
2023-01-26T09:00:11.777Z,31.20
2023-01-26T09:02:39.952Z,39.70
2023-01-26T09:05:10.473Z,38.37
2023-01-26T09:07:38.500Z,37.30
2023-01-26T09:10:07.840Z,35.77
2023-01-26T09:12:35.726Z,33.30
2023-01-26T09:15:04.198Z,33.40
2023-01-26T09:17:32.320Z,31.43
2023-01-26T09:20:00.136Z,34.77
2023-01-26T09:22:29.587Z,41.83
2023-01-26T09:24:57.610Z,41.30
2023-01-26T09:27:26.717Z,30.20
2023-01-26T09:29:55.184Z,35.77
2023-01-26T09:32:23.563Z,28.70
2023-01-26T09:34:51.516Z,27.47
2023-01-26T09:37:19.395Z,27.57
2023-01-26T09:39:48.595Z,29.17
2023-01-26T09:42:32.062Z,26.13
2023-01-26T09:45:10.456Z,26.57
2023-01-26T09:47:53.922Z,23.67
2023-01-26T09:50:27.626Z,24.43
2023-01-26T09:52:58.089Z,27.90
2023-01-26T09:55:30.196Z,54.00
2023-01-26T09:58:01.521Z,30.90
2023-01-26T10:00:33.592Z,25.47
2023-01-26T10:03:11.914Z,27.67
2023-01-26T10:05:45.105Z,27.03
2023-01-26T10:08:15.649Z,29.03
2023-01-26T10:10:48.191Z,26.87
2023-01-26T10:13:18.297Z,28.47
2023-01-26T10:15:50.406Z,29.10
2023-01-26T10:18:21.228Z,32.90
2023-01-26T10:20:52.371Z,30.87
2023-01-26T10:23:23.447Z,30.37
2023-01-26T10:25:54.298Z,27.37
2023-01-26T10:28:28.367Z,32.10
2023-01-26T10:30:57.049Z,31.13
2023-01-26T10:33:28.687Z,26.13
2023-01-26T10:35:56.802Z,38.33
2023-01-26T10:38:29.513Z,31.53
2023-01-26T10:41:00.467Z,32.13
2023-01-26T10:43:29.092Z,36.47
2023-01-26T10:45:56.924Z,29.37
2023-01-26T10:48:26.716Z,31.43
2023-01-26T10:50:55.795Z,42.63
2023-01-26T10:53:27.543Z,32.33
2023-01-26T10:56:02.602Z,39.67
2023-01-26T10:58:47.646Z,37.67
2023-01-26T11:01:18.887Z,43.27
2023-01-26T11:04:04.464Z,39.07
2023-01-26T11:06:33.022Z,41.33
2023-01-26T11:09:17.815Z,56.03
2023-01-26T11:11:57.673Z,34.70
2023-01-26T11:14:25.639Z,46.60
2023-01-26T11:17:00.016Z,37.23
2023-01-26T11:20:03.818Z,60.43
2023-01-26T11:22:38.419Z,41.03
2023-01-26T11:25:18.354Z,47.77
2023-01-26T11:28:00.277Z,51.53
2023-01-26T11:30:53.853Z,63.30
2023-01-26T11:33:29.901Z,50.50
2023-01-26T11:36:07.145Z,64.27
2023-01-26T11:38:40.957Z,56.83
2023-01-26T11:41:22.052Z,51.27
2023-01-26T11:44:07.853Z,46.43
2023-01-26T11:46:49.008Z,48.60
2023-01-26T11:49:33.211Z,56.00
2023-01-26T11:52:10.319Z,52.67
2023-01-26T11:55:15.631Z,51.20
2023-01-26T11:57:55.443Z,56.73
2023-01-26T12:00:34.483Z,93.93
2023-01-26T12:03:05.496Z,57.47
2023-01-26T12:05:42.608Z,69.87
2023-01-26T12:08:18.826Z,64.33
2023-01-26T12:10:51.999Z,62.80
2023-01-26T12:13:29.081Z,47.07
2023-01-26T12:16:05.830Z,68.40
2023-01-26T12:18:53.297Z,65.27
2023-01-26T12:21:29.513Z,54.33
2023-01-26T12:24:02.061Z,74.07
2023-01-26T12:26:36.059Z,64.53
2023-01-26T12:29:12.742Z,70.63
2023-01-26T12:31:49.000Z,59.63
2023-01-26T12:34:17.285Z,70.87
2023-01-26T12:36:52.442Z,62.77
2023-01-26T12:39:29.048Z,66.07
2023-01-26T12:42:16.970Z,94.43
2023-01-26T12:44:48.094Z,67.30
2023-01-26T12:47:22.808Z,62.60
2023-01-26T12:49:56.038Z,59.37
2023-01-26T12:52:29.085Z,76.63
2023-01-26T12:55:00.800Z,60.30
2023-01-26T12:57:39.679Z,58.10
2023-01-26T13:00:19.481Z,74.07
2023-01-26T13:02:52.020Z,65.70
2023-01-26T13:05:29.457Z,85.23
2023-01-26T13:07:57.703Z,73.90
2023-01-26T13:10:44.594Z,70.70
2023-01-26T13:13:30.666Z,61.70
2023-01-26T13:16:32.388Z,78.50
2023-01-26T13:19:02.290Z,67.37
2023-01-26T13:21:42.219Z,79.60
2023-01-26T13:24:43.493Z,72.87
2023-01-26T13:27:29.618Z,67.67
2023-01-26T13:29:57.774Z,63.67
2023-01-26T13:33:02.882Z,84.73
2023-01-26T13:35:33.075Z,68.13
2023-01-26T13:38:07.755Z,71.47
2023-01-26T13:40:37.509Z,55.57
2023-01-26T13:43:25.783Z,55.77
2023-01-26T13:46:01.876Z,40.57
2023-01-26T13:48:44.919Z,38.13
2023-01-26T13:51:20.717Z,48.13
2023-01-26T13:53:54.505Z,22.50
2023-01-26T13:56:28.026Z,27.13
2023-01-26T13:59:08.258Z,49.63
2023-01-26T14:01:43.223Z,37.97
2023-01-26T14:04:15.018Z,26.03
2023-01-26T14:06:48.561Z,34.33
2023-01-26T14:09:16.955Z,30.83
2023-01-26T14:11:46.779Z,31.37
2023-01-26T14:14:24.322Z,21.73
2023-01-26T14:16:52.267Z,22.40
2023-01-26T14:19:21.741Z,20.87
2023-01-26T14:21:52.903Z,28.33
2023-01-26T14:24:25.969Z,29.00
2023-01-26T14:26:55.530Z,29.43
2023-01-26T14:29:25.494Z,21.13
2023-01-26T14:31:55.463Z,30.80
2023-01-26T14:34:24.825Z,29.90
2023-01-26T14:37:07.991Z,17.50
2023-01-26T14:39:35.836Z,15.93
2023-01-26T14:42:04.577Z,16.43
2023-01-26T14:44:32.516Z,16.93
2023-01-26T14:47:05.350Z,18.97
2023-01-26T14:49:43.682Z,19.23
2023-01-26T14:52:24.944Z,18.03
2023-01-26T14:54:54.383Z,23.53
2023-01-26T14:57:25.340Z,29.03
2023-01-26T14:59:55.833Z,26.23
2023-01-26T15:02:26.165Z,27.80
2023-01-26T15:04:59.486Z,28.90
2023-01-26T15:07:35.871Z,32.80
2023-01-26T15:10:25.186Z,29.77
2023-01-26T15:12:59.080Z,34.83
2023-01-26T15:15:29.912Z,31.23
2023-01-26T15:18:18.662Z,49.17
2023-01-26T15:21:00.061Z,37.77
2023-01-26T15:23:32.045Z,39.67
2023-01-26T15:26:08.502Z,55.00
2023-01-26T15:28:37.325Z,44.20
2023-01-26T15:31:05.791Z,30.30
2023-01-26T15:33:45.438Z,39.20
2023-01-26T15:36:25.293Z,33.47
2023-01-26T15:39:01.768Z,35.60
2023-01-26T15:41:30.278Z,31.73
2023-01-26T15:43:59.440Z,40.23
2023-01-26T15:46:27.635Z,35.93
2023-01-26T15:48:55.824Z,37.37
2023-01-26T15:51:23.805Z,34.90
2023-01-26T15:53:51.597Z,45.77
2023-01-26T15:56:20.756Z,43.73
2023-01-26T15:58:48.677Z,37.97
2023-01-26T16:01:21.585Z,42.03
2023-01-26T16:03:50.585Z,39.00
2023-01-26T16:06:23.607Z,39.00
2023-01-26T16:08:52.060Z,33.37
2023-01-26T16:11:22.870Z,35.37
2023-01-26T16:14:02.881Z,37.57
2023-01-26T16:16:32.031Z,40.63
2023-01-26T16:19:00.139Z,22.00
2023-01-26T16:21:31.327Z,33.73
2023-01-26T16:23:59.609Z,40.40
2023-01-26T16:26:29.508Z,42.53
2023-01-26T16:28:57.853Z,31.87
2023-01-26T16:31:29.054Z,35.47
2023-01-26T16:33:57.566Z,32.97
2023-01-26T16:36:25.385Z,35.33
2023-01-26T16:38:53.233Z,30.40
2023-01-26T16:41:25.673Z,32.23
2023-01-26T16:43:57.358Z,25.83
2023-01-26T16:46:25.772Z,30.77
2023-01-26T16:48:53.741Z,28.07
2023-01-26T16:51:25.366Z,19.00
2023-01-26T16:53:53.677Z,20.23
2023-01-26T16:56:21.673Z,28.43
2023-01-26T16:58:49.610Z,19.60
2023-01-26T17:01:21.746Z,21.17
2023-01-26T17:03:50.942Z,24.90
2023-01-26T17:06:20.127Z,28.30
2023-01-26T17:08:48.406Z,23.57
2023-01-26T17:11:18.277Z,26.73
2023-01-26T17:13:46.584Z,29.50
2023-01-26T17:16:16.372Z,20.40
2023-01-26T17:18:46.102Z,22.70
2023-01-26T17:21:14.443Z,29.40
2023-01-26T17:23:44.368Z,31.67
2023-01-26T17:26:15.227Z,29.67
2023-01-26T17:28:43.160Z,29.00
2023-01-26T17:31:12.210Z,28.27
2023-01-26T17:33:40.661Z,25.80
2023-01-26T17:36:10.873Z,33.37
2023-01-26T17:38:38.808Z,29.87
2023-01-26T17:41:06.901Z,33.73
2023-01-26T17:43:34.946Z,33.70
2023-01-26T17:46:07.097Z,29.80
2023-01-26T17:48:37.384Z,29.57
2023-01-26T17:51:11.263Z,30.63
2023-01-26T17:53:40.026Z,35.40
2023-01-26T17:56:09.280Z,43.03
2023-01-26T17:58:37.550Z,29.57
2023-01-26T18:01:06.151Z,38.37
2023-01-26T18:03:35.439Z,42.57
2023-01-26T18:06:03.297Z,37.53
2023-01-26T18:08:32.525Z,29.57
2023-01-26T18:11:01.810Z,32.50
2023-01-26T18:13:30.436Z,36.73
2023-01-26T18:15:58.382Z,33.40
2023-01-26T18:18:27.925Z,28.07
2023-01-26T18:20:56.299Z,24.73
2023-01-26T18:23:25.246Z,31.13
2023-01-26T18:25:54.558Z,35.07
2023-01-26T18:28:22.572Z,33.63
2023-01-26T18:30:50.420Z,29.77
2023-01-26T18:33:18.417Z,27.77
2023-01-26T18:35:46.241Z,25.77
2023-01-26T18:38:14.128Z,27.50
2023-01-26T18:40:42.000Z,23.83
2023-01-26T18:43:11.260Z,34.40
2023-01-26T18:45:42.760Z,31.03
2023-01-26T18:48:10.723Z,30.67
2023-01-26T18:50:39.232Z,27.87
2023-01-26T18:53:07.183Z,33.93
2023-01-26T18:55:35.029Z,27.63
2023-01-26T18:58:02.904Z,23.97
2023-01-26T19:00:32.088Z,31.23
2023-01-26T19:03:00.116Z,14.10
2023-01-26T19:05:28.176Z,32.33
2023-01-26T19:07:56.023Z,14.73
2023-01-26T19:10:24.105Z,23.60
2023-01-26T19:12:53.245Z,29.57
2023-01-26T19:15:21.167Z,11.80
2023-01-26T19:17:51.483Z,23.43
2023-01-26T19:20:19.471Z,13.23
2023-01-26T19:22:53.709Z,11.10
2023-01-26T19:25:21.749Z,16.27
2023-01-26T19:27:49.849Z,16.53
2023-01-26T19:30:18.368Z,18.33
2023-01-26T19:33:02.910Z,19.13
2023-01-26T19:35:33.644Z,21.53
2023-01-26T19:38:01.538Z,19.10
2023-01-26T19:40:29.391Z,25.83
2023-01-26T19:42:57.293Z,13.53
2023-01-26T19:45:25.092Z,21.93
2023-01-26T19:47:52.997Z,23.03
2023-01-26T19:50:21.092Z,22.37
2023-01-26T19:52:50.379Z,20.53
2023-01-26T19:55:18.208Z,25.37
2023-01-26T19:57:46.115Z,22.50
2023-01-26T20:00:15.101Z,29.70
2023-01-26T20:02:43.019Z,18.87
2023-01-26T20:05:11.571Z,27.73
2023-01-26T20:07:39.621Z,23.00
2023-01-26T20:10:10.175Z,27.83
2023-01-26T20:12:38.088Z,28.20
2023-01-26T20:15:07.002Z,17.40
2023-01-26T20:17:35.207Z,21.10
2023-01-26T20:20:03.314Z,24.73
2023-01-26T20:22:33.911Z,23.23
2023-01-26T20:25:01.799Z,27.50
2023-01-26T20:27:31.719Z,23.37
2023-01-26T20:30:00.359Z,20.80
2023-01-26T20:32:28.605Z,24.70
2023-01-26T20:34:56.850Z,21.60
2023-01-26T20:37:24.699Z,26.83
2023-01-26T20:39:52.616Z,25.20
2023-01-26T20:42:20.521Z,29.33
2023-01-26T20:44:49.783Z,23.40
2023-01-26T20:47:17.634Z,24.27
2023-01-26T20:49:45.542Z,25.10
2023-01-26T20:52:13.340Z,24.87
2023-01-26T20:54:41.215Z,24.43
2023-01-26T20:57:09.079Z,21.93
2023-01-26T20:59:36.993Z,17.00
2023-01-26T21:02:06.232Z,20.80
2023-01-26T21:04:34.131Z,22.57
2023-01-26T21:07:01.944Z,17.40
2023-01-26T21:09:29.841Z,17.93
2023-01-26T21:11:57.743Z,16.77
2023-01-26T21:14:25.614Z,16.90
2023-01-26T21:16:53.444Z,13.50
2023-01-26T21:19:22.808Z,11.90
2023-01-26T21:21:50.739Z,10.70
2023-01-26T21:24:18.683Z,9.00
2023-01-26T21:26:47.789Z,11.27
2023-01-26T21:29:17.071Z,12.50
2023-01-26T21:31:48.672Z,12.33
2023-01-26T21:34:16.607Z,13.47
2023-01-26T21:36:45.888Z,10.43
2023-01-26T21:39:15.318Z,11.03
2023-01-26T21:41:59.159Z,12.73
2023-01-26T21:44:28.731Z,7.63
2023-01-26T21:46:58.428Z,8.00
2023-01-26T21:49:28.378Z,13.70
2023-01-26T21:52:15.897Z,7.90
2023-01-26T21:54:44.145Z,9.93
2023-01-26T21:57:26.367Z,10.67
2023-01-26T21:59:54.276Z,7.77
2023-01-26T22:02:22.500Z,10.17
2023-01-26T22:04:50.571Z,13.50
2023-01-26T22:07:19.759Z,5.43
2023-01-26T22:09:48.066Z,7.93
2023-01-26T22:12:16.522Z,9.40
2023-01-26T22:14:45.947Z,8.00
2023-01-26T22:17:13.802Z,9.33
2023-01-26T22:19:41.783Z,7.20
2023-01-26T22:22:09.655Z,8.57
2023-01-26T22:24:38.870Z,5.20
2023-01-26T22:27:08.156Z,6.10
2023-01-26T22:29:36.274Z,7.57
2023-01-26T22:32:04.200Z,6.80
2023-01-26T22:34:32.484Z,3.60
2023-01-26T22:37:00.319Z,5.87
2023-01-26T22:39:28.178Z,4.77
2023-01-26T22:41:57.292Z,3.50
2023-01-26T22:44:25.198Z,4.93
2023-01-26T22:46:53.145Z,2.50
2023-01-26T22:49:21.125Z,2.77
2023-01-26T22:51:48.929Z,4.13
2023-01-26T22:54:16.886Z,5.10
2023-01-26T22:56:44.692Z,5.03
2023-01-26T22:59:13.948Z,4.13
2023-01-26T23:01:42.684Z,6.00
2023-01-26T23:04:11.183Z,5.00
2023-01-26T23:06:39.153Z,5.17
2023-01-26T23:09:07.066Z,4.10
2023-01-26T23:11:34.889Z,2.90
2023-01-26T23:14:02.757Z,4.00
2023-01-26T23:16:32.123Z,3.37
2023-01-26T23:19:00.559Z,4.47
2023-01-26T23:21:30.502Z,4.80
2023-01-26T23:23:58.517Z,3.67
2023-01-26T23:26:26.473Z,5.77
2023-01-26T23:28:54.762Z,4.60
2023-01-26T23:31:23.097Z,8.23
2023-01-26T23:33:52.420Z,5.03
2023-01-26T23:36:20.794Z,4.87
2023-01-26T23:38:48.687Z,5.07
2023-01-26T23:41:16.673Z,3.37
2023-01-26T23:43:44.668Z,3.33
2023-01-26T23:46:13.260Z,5.00
2023-01-26T23:48:41.425Z,4.50
2023-01-26T23:51:12.552Z,2.83
2023-01-26T23:53:40.604Z,5.37
2023-01-26T23:56:10.717Z,4.50
2023-01-26T23:58:38.627Z,5.33
